Time;durP1;ratioP1;P1;durP2;ratioP2;P2;SDS_P1;SDS_P2;PMS_P1;PMS_P2;Temp;Humidity;BMP_temperature;BMP_pressure;BME280_temperature;BME280_humidity;BME280_pressure;Samples;Min_cycle;Max_cycle;Signal;HPM_P1;HPM_P2
2021/10/07 00:04:47;;;;;;;3.40;2.15;;;19.60;59.80;;;;;;20838177;28;20446;-59
2021/10/07 00:14:48;;;;;;;3.30;1.60;;;19.60;59.90;;;;;;20844191;28;20037;-59
2021/10/07 00:24:48;;;;;;;3.00;1.75;;;19.50;59.90;;;;;;20849905;28;20045;-57
2021/10/07 00:45:02;;;;;;;3.17;1.42;;;19.50;59.90;;;;;;20853486;28;20036;-59
2021/10/07 00:55:04;;;;;;;9.43;1.65;;;19.50;60.40;;;;;;20844726;28;20534;-57
2021/10/07 01:05:06;;;;;;;3.30;1.50;;;19.40;59.90;;;;;;20843067;28;20116;-56
2021/10/07 01:15:07;;;;;;;5.28;1.35;;;19.50;59.90;;;;;;20847496;28;20040;-57
2021/10/07 01:25:07;;;;;;;4.30;1.10;;;19.40;59.90;;;;;;20845389;28;20033;-59
2021/10/07 01:35:09;;;;;;;3.10;1.25;;;19.40;60.00;;;;;;20845977;28;20479;-58
2021/10/07 01:45:11;;;;;;;3.10;1.00;;;19.40;60.00;;;;;;20848656;28;20033;-58
2021/10/07 01:55:12;;;;;;;3.00;1.02;;;19.30;60.00;;;;;;20851662;28;20064;-57
2021/10/07 02:05:13;;;;;;;3.83;1.17;;;19.30;60.00;;;;;;20845481;28;20438;-52
2021/10/07 02:15:14;;;;;;;2.38;0.95;;;19.30;59.90;;;;;;20848551;28;20169;-52
2021/10/07 02:25:15;;;;;;;1.92;0.75;;;19.30;60.00;;;;;;20850675;28;20040;-55
2021/10/07 02:35:16;;;;;;;2.00;0.88;;;19.30;60.00;;;;;;20851761;28;20082;-50
2021/10/07 02:45:17;;;;;;;2.67;0.68;;;19.30;60.00;;;;;;20843073;28;20029;-59
2021/10/07 02:55:18;;;;;;;3.63;1.25;;;19.30;59.90;;;;;;20837962;28;20033;-55
2021/10/07 03:05:18;;;;;;;1.58;0.68;;;19.30;59.90;;;;;;20843765;28;20029;-53
2021/10/07 03:15:19;;;;;;;1.50;0.73;;;19.30;59.90;;;;;;20842316;28;20034;-58
2021/10/07 03:25:21;;;;;;;2.03;0.70;;;19.20;59.90;;;;;;20840569;28;20788;-53
2021/10/07 03:35:21;;;;;;;1.38;0.60;;;19.30;60.00;;;;;;20847709;28;20033;-52
2021/10/07 03:45:22;;;;;;;1.08;0.40;;;19.20;59.90;;;;;;20835977;28;20495;-55
2021/10/07 03:55:22;;;;;;;1.73;0.90;;;19.30;60.00;;;;;;20840091;28;20079;-55
2021/10/07 04:05:24;;;;;;;1.50;0.68;;;19.20;59.90;;;;;;20858335;28;20033;-56
2021/10/07 04:15:24;;;;;;;2.03;0.68;;;19.20;59.90;;;;;;20861892;28;20032;-55
2021/10/07 04:25:25;;;;;;;2.60;1.30;;;19.20;60.00;;;;;;20843322;28;20071;-55
2021/10/07 04:35:25;;;;;;;0.85;0.50;;;19.20;60.00;;;;;;20836200;28;20040;-54
2021/10/07 04:45:26;;;;;;;4.72;0.93;;;19.20;60.00;;;;;;20848221;28;20037;-57
2021/10/07 04:55:27;;;;;;;2.67;0.73;;;19.20;60.50;;;;;;20852472;28;20460;-54
2021/10/07 05:05:27;;;;;;;2.87;1.10;;;19.10;59.90;;;;;;20825222;28;20034;-55
2021/10/07 05:15:28;;;;;;;3.60;0.90;;;19.20;60.00;;;;;;20816298;28;20498;-52
2021/10/07 05:25:29;;;;;;;7.22;1.20;;;19.10;59.90;;;;;;20841331;28;20033;-58
2021/10/07 05:35:29;;;;;;;2.03;0.57;;;19.10;59.90;;;;;;20852082;28;20032;-58
2021/10/07 05:45:30;;;;;;;3.35;1.15;;;19.10;59.90;;;;;;20841567;28;20535;-56
2021/10/07 05:55:30;;;;;;;3.22;0.77;;;19.20;59.90;;;;;;20830811;28;20034;-57
2021/10/07 06:05:31;;;;;;;9.75;1.35;;;19.20;59.70;;;;;;20824629;28;20025;-58
2021/10/07 06:15:32;;;;;;;18.67;2.65;;;19.40;59.60;;;;;;20821566;28;20117;-51
2021/10/07 06:25:34;;;;;;;14.85;2.22;;;19.50;59.50;;;;;;20818749;28;20036;-57
2021/10/07 06:35:35;;;;;;;17.83;3.53;;;19.60;59.40;;;;;;20840489;28;20037;-58
2021/10/07 06:45:36;;;;;;;11.30;2.00;;;19.60;59.30;;;;;;20844772;28;20025;-58
2021/10/07 06:55:37;;;;;;;10.23;2.38;;;19.70;59.20;;;;;;20850244;28;20487;-58
2021/10/07 07:05:38;;;;;;;8.52;1.95;;;19.80;59.30;;;;;;20843222;28;20507;-58
2021/10/07 07:15:38;;;;;;;8.15;1.58;;;19.90;59.20;;;;;;20837663;28;20557;-55
2021/10/07 07:25:39;;;;;;;8.27;1.63;;;19.90;59.20;;;;;;20826061;28;20037;-58
2021/10/07 07:35:39;;;;;;;8.02;1.60;;;20.00;59.20;;;;;;20828061;28;20036;-58
2021/10/07 07:45:40;;;;;;;7.35;1.55;;;20.10;59.30;;;;;;20840178;28;20043;-56
2021/10/07 07:55:40;;;;;;;6.07;1.58;;;20.20;59.30;;;;;;20820679;28;20036;-54
2021/10/07 08:05:41;;;;;;;3.45;1.75;;;20.20;59.30;;;;;;20820991;28;20041;-57
2021/10/07 08:15:42;;;;;;;5.32;1.40;;;20.30;59.20;;;;;;20833044;28;20623;-55
2021/10/07 08:25:43;;;;;;;9.15;1.60;;;20.30;59.10;;;;;;20880284;28;20116;-57
2021/10/07 08:35:44;;;;;;;5.13;0.97;;;20.30;59.10;;;;;;20856561;28;20117;-55
2021/10/07 08:45:45;;;;;;;4.20;1.90;;;20.40;59.10;;;;;;20774955;28;20467;-52
2021/10/07 08:55:46;;;;;;;3.35;1.23;;;20.40;59.10;;;;;;20829821;28;20025;-54
2021/10/07 09:05:47;;;;;;;6.10;1.00;;;20.40;59.00;;;;;;20826769;28;20041;-58
2021/10/07 09:15:52;;;;;;;2.97;1.08;;;20.40;59.00;;;;;;20826801;28;20075;-58
2021/10/07 09:25:56;;;;;;;4.28;1.00;;;20.40;58.90;;;;;;20826574;28;20461;-58
2021/10/07 09:36:17;;;;;;;4.43;1.08;;;20.40;58.90;;;;;;20825462;28;20482;-55
2021/10/07 09:46:39;;;;;;;2.13;0.75;;;20.40;58.80;;;;;;20825294;28;20057;-53
2021/10/07 09:56:39;;;;;;;5.55;1.02;;;20.50;58.80;;;;;;20804560;28;20492;-59
2021/10/07 10:06:40;;;;;;;3.20;1.00;;;20.50;59.00;;;;;;20817497;28;20500;-54
2021/10/07 10:16:41;;;;;;;14.75;3.10;;;20.50;59.00;;;;;;20827865;28;20072;-51
2021/10/07 10:27:01;;;;;;;8.35;1.80;;;20.50;58.80;;;;;;20808906;28;20037;-59
2021/10/07 10:37:02;;;;;;;10.25;1.52;;;20.50;59.00;;;;;;20830793;28;20036;-57
2021/10/07 10:47:06;;;;;;;3.38;0.98;;;20.50;58.90;;;;;;20834715;28;20055;-58
2021/10/07 10:57:06;;;;;;;4.85;1.33;;;20.50;58.90;;;;;;20818148;28;20388;-57
2021/10/07 11:07:18;;;;;;;7.22;1.08;;;20.50;59.00;;;;;;20804185;28;20051;-57
2021/10/07 11:17:20;;;;;;;2.22;0.95;;;20.50;59.70;;;;;;20813339;28;20412;-57
2021/10/07 11:27:49;;;;;;;3.30;0.93;;;20.50;59.90;;;;;;20816398;28;20033;-52
2021/10/07 11:37:53;;;;;;;5.47;0.70;;;20.50;60.60;;;;;;20473241;28;20062;-55
2021/10/07 11:47:54;;;;;;;2.33;0.65;;;20.50;61.00;;;;;;20475436;28;20047;-58
2021/10/07 11:57:57;;;;;;;3.85;1.48;;;20.50;61.20;;;;;;20475500;28;20566;-55
2021/10/07 12:08:07;;;;;;;8.38;1.08;;;20.50;61.30;;;;;;20543876;28;20038;-57
2021/10/07 12:18:09;;;;;;;3.22;0.95;;;20.40;61.70;;;;;;20819846;28;20044;-58
2021/10/07 12:28:17;;;;;;;4.32;0.95;;;20.40;61.80;;;;;;20833065;28;20091;-58
2021/10/07 12:38:17;;;;;;;4.63;1.17;;;20.50;61.90;;;;;;20844449;28;20171;-58
2021/10/07 12:48:18;;;;;;;5.90;1.23;;;20.40;61.80;;;;;;20830902;28;20072;-58
2021/10/07 12:58:25;;;;;;;5.65;1.17;;;20.40;61.50;;;;;;20830861;28;20108;-58
2021/10/07 13:08:25;;;;;;;3.60;1.20;;;20.40;61.50;;;;;;20838699;28;20108;-59
2021/10/07 13:18:26;;;;;;;4.30;1.70;;;20.40;61.40;;;;;;20850754;28;20057;-59
2021/10/07 13:28:27;;;;;;;3.55;1.45;;;20.40;61.60;;;;;;20853329;28;20060;-58
2021/10/07 13:38:27;;;;;;;4.57;1.30;;;20.40;61.70;;;;;;20858706;28;20068;-59
2021/10/07 13:48:28;;;;;;;3.58;1.10;;;20.40;61.60;;;;;;20844189;28;20053;-59
2021/10/07 13:58:28;;;;;;;2.30;1.13;;;20.40;61.70;;;;;;20825403;28;20025;-59
2021/10/07 14:08:30;;;;;;;5.03;1.55;;;20.40;61.70;;;;;;20822546;28;20026;-57
2021/10/07 14:18:31;;;;;;;2.58;1.00;;;20.40;61.70;;;;;;20845631;28;20033;-58
2021/10/07 14:28:32;;;;;;;2.95;1.15;;;20.40;61.80;;;;;;20848356;28;20026;-58
2021/10/07 14:38:32;;;;;;;1.92;0.95;;;20.40;61.80;;;;;;20850006;28;20543;-59
2021/10/07 14:48:33;;;;;;;2.47;0.93;;;20.40;61.80;;;;;;20839248;28;20104;-55
2021/10/07 14:58:33;;;;;;;4.10;0.95;;;20.30;61.90;;;;;;20840486;28;20507;-59
2021/10/07 15:08:34;;;;;;;3.08;0.98;;;20.40;61.90;;;;;;20846577;28;20045;-55
2021/10/07 15:18:35;;;;;;;2.92;0.98;;;20.40;62.00;;;;;;20842077;28;20408;-57
2021/10/07 15:28:36;;;;;;;1.92;0.80;;;20.40;61.90;;;;;;20844222;28;20040;-51
2021/10/07 15:38:37;;;;;;;2.13;0.77;;;20.40;62.20;;;;;;20844864;28;20037;-56
2021/10/07 15:48:39;;;;;;;2.30;0.80;;;20.40;61.90;;;;;;20834937;28;20062;-55
2021/10/07 15:58:40;;;;;;;1.13;0.73;;;20.40;62.00;;;;;;20848981;28;20029;-55
2021/10/07 16:08:40;;;;;;;2.90;0.95;;;20.30;62.00;;;;;;20827774;28;20459;-57
2021/10/07 16:18:41;;;;;;;2.78;1.38;;;20.30;61.90;;;;;;20841133;28;20087;-59
2021/10/07 16:28:42;;;;;;;8.70;4.00;;;20.40;61.60;;;;;;20837559;28;20103;-58
2021/10/07 16:38:43;;;;;;;5.82;2.88;;;20.30;61.40;;;;;;20840423;28;20116;-56
2021/10/07 16:48:44;;;;;;;8.77;3.50;;;20.30;61.60;;;;;;20842641;28;20033;-56
2021/10/07 16:58:45;;;;;;;7.50;3.22;;;20.30;62.10;;;;;;20810077;28;20473;-56
2021/10/07 17:08:46;;;;;;;11.63;3.85;;;20.30;62.20;;;;;;20835172;28;20056;-56
2021/10/07 17:18:46;;;;;;;5.18;2.75;;;20.30;62.90;;;;;;20819623;28;20094;-54
2021/10/07 17:28:47;;;;;;;10.30;4.30;;;20.40;63.20;;;;;;20811960;28;20025;-58
2021/10/07 17:38:47;;;;;;;8.57;4.07;;;20.40;64.00;;;;;;20807746;28;20081;-53
2021/10/07 17:48:48;;;;;;;9.25;3.47;;;20.40;63.70;;;;;;20807856;28;20040;-52
2021/10/07 17:58:48;;;;;;;11.70;3.67;;;20.40;64.00;;;;;;20796120;28;20030;-56
2021/10/07 18:08:50;;;;;;;7.63;3.00;;;20.40;64.00;;;;;;20820704;28;20112;-57
2021/10/07 18:18:51;;;;;;;17.88;3.58;;;20.40;64.20;;;;;;20841112;28;20526;-59
2021/10/07 18:28:51;;;;;;;11.13;4.28;;;20.40;64.80;;;;;;20893579;23;20389;-60
2021/10/07 18:38:52;;;;;;;10.38;2.90;;;20.40;65.20;;;;;;20823353;28;20037;-60
2021/10/07 18:48:52;;;;;;;11.40;3.97;;;20.40;65.80;;;;;;20822696;28;20179;-59
2021/10/07 18:58:53;;;;;;;9.83;3.27;;;20.40;64.90;;;;;;20821225;28;20476;-59
2021/10/07 19:08:53;;;;;;;20.05;4.97;;;20.40;64.00;;;;;;20811076;28;20169;-57
2021/10/07 19:18:54;;;;;;;11.77;4.40;;;20.40;65.50;;;;;;20778617;28;20033;-59
2021/10/07 19:28:56;;;;;;;12.25;3.80;;;20.40;64.80;;;;;;20758012;28;20118;-56
2021/10/07 19:38:56;;;;;;;10.95;3.58;;;20.40;65.10;;;;;;20805429;28;20072;-52
2021/10/07 19:48:59;;;;;;;9.60;3.75;;;20.40;66.50;;;;;;20698917;28;20612;-55
2021/10/07 19:58:59;;;;;;;12.23;3.28;;;20.40;66.90;;;;;;20724837;28;20500;-58
2021/10/07 20:09:02;;;;;;;8.45;2.83;;;20.30;66.70;;;;;;20726974;28;20053;-53
2021/10/07 20:19:03;;;;;;;8.68;3.38;;;20.30;66.70;;;;;;20726576;28;20038;-55
2021/10/07 20:29:03;;;;;;;6.30;3.05;;;20.30;66.80;;;;;;20726991;28;20561;-57
2021/10/07 20:39:09;;;;;;;9.07;3.63;;;20.30;66.70;;;;;;20706835;28;20042;-57
2021/10/07 20:49:09;;;;;;;9.52;3.15;;;20.20;67.10;;;;;;20705045;28;20473;-59
2021/10/07 20:59:10;;;;;;;13.10;4.45;;;20.20;67.00;;;;;;20711144;28;20034;-55
2021/10/07 21:09:11;;;;;;;10.70;4.45;;;20.20;66.60;;;;;;20721527;28;20030;-56
2021/10/07 21:19:11;;;;;;;6.47;3.00;;;20.10;67.20;;;;;;20715324;28;20037;-59
2021/10/07 21:29:12;;;;;;;12.25;4.85;;;20.10;67.30;;;;;;20721540;28;20083;-60
2021/10/07 21:39:13;;;;;;;10.85;4.00;;;20.00;67.00;;;;;;20717992;28;20042;-58
2021/10/07 21:49:14;;;;;;;4.82;3.17;;;20.00;67.30;;;;;;20709224;28;20493;-58
2021/10/07 21:59:14;;;;;;;9.23;4.45;;;20.00;67.40;;;;;;20704018;28;20173;-58
2021/10/07 22:09:15;;;;;;;7.85;3.38;;;19.90;67.60;;;;;;20707684;28;20397;-57
2021/10/07 22:19:15;;;;;;;7.45;3.45;;;19.90;67.40;;;;;;20700330;28;20038;-58
2021/10/07 22:29:16;;;;;;;8.38;3.45;;;19.90;67.50;;;;;;20713093;28;20057;-58
2021/10/07 22:39:16;;;;;;;5.72;3.10;;;19.80;67.40;;;;;;20732612;28;20029;-56
2021/10/07 22:49:17;;;;;;;5.07;3.40;;;19.80;67.20;;;;;;20707599;28;20105;-59
2021/10/07 22:59:17;;;;;;;6.00;3.50;;;19.80;67.20;;;;;;20728451;28;20656;-57
2021/10/07 23:09:18;;;;;;;4.28;2.95;;;19.70;67.00;;;;;;20691301;28;20042;-53
2021/10/07 23:19:19;;;;;;;5.47;3.15;;;19.70;67.00;;;;;;20699323;28;20061;-58
2021/10/07 23:29:19;;;;;;;5.45;2.80;;;19.70;67.00;;;;;;20708190;28;20397;-57
2021/10/07 23:39:20;;;;;;;3.78;2.67;;;19.70;66.80;;;;;;20711370;28;20041;-55
2021/10/07 23:49:21;;;;;;;4.65;2.90;;;19.60;66.40;;;;;;20711549;28;20157;-55
2021/10/07 23:59:21;;;;;;;7.57;3.38;;;19.60;66.70;;;;;;20696408;28;20030;-58
